Nova, Ohio
Current Conditions -  °F | °C
As of 4:52 PM on Monday 22 Dec 2014 (Local Time) from KMFD Reporting Station
Clear Clear  
Wind Chill: 33°   Ceiling: Unl
Heat Index: 40°   Visibility: 9mi
Dew Point: 33°   Wind: 13mph
Humidity: 77%   Direction: 100°E
Pressure: 29.89"   Gusts: NA
Location:  41.03°N, 82.3°W
Report Text: KMFD 222152Z 10011KT 9SM CLR 04/01 A2989 RMK AO2 SLP135 T00440006
Loading
Personal Weather Stations






























Interactive Weather Map New forecast layout! Learn more

10-Day Weather Forecast

Advertisements
Track Severe Weather on mobile